Terminal Aerodrome Forecast
Issued by NWS Caribou, ME

Home | Current Version | Previous Version | Text Only | Print | Product List | Glossary On
Versions: 1 2 3 4 5 6 7 8 9 10 11 12 13 14 15 16 17 18 19 20 21
000
FTUS41 KCAR 311330 AAA
TAFCAR
TAF AMD
KCAR 311330Z 3114/0112 34020G30KT 1SM -SN BLSN SCT008 OVC018
     FM312100 34018G28KT 4SM -SHSN BLSN OVC025
     FM010200 32018G28KT 5SM BLSN SCT025=

USA.gov is the U.S. government's official web portal to all federal, state and local government web resources and services.